sensor_id;sensor_type;location;lat;lon;timestamp;temperature;humidity
82506;SHT30;72144;51.444;10.560;2023-12-20T00:01:01;5.35;87.40
82506;SHT30;72144;51.444;10.560;2023-12-20T00:03:26;5.33;87.39
82506;SHT30;72144;51.444;10.560;2023-12-20T00:05:52;5.32;87.44
82506;SHT30;72144;51.444;10.560;2023-12-20T00:08:17;5.32;87.41
82506;SHT30;72144;51.444;10.560;2023-12-20T00:10:44;5.32;87.43
82506;SHT30;72144;51.444;10.560;2023-12-20T00:13:09;5.35;87.44
82506;SHT30;72144;51.444;10.560;2023-12-20T00:15:35;5.35;87.49
82506;SHT30;72144;51.444;10.560;2023-12-20T00:18:00;5.32;87.44
82506;SHT30;72144;51.444;10.560;2023-12-20T00:20:26;5.35;87.45
82506;SHT30;72144;51.444;10.560;2023-12-20T00:22:52;5.32;87.46
82506;SHT30;72144;51.444;10.560;2023-12-20T00:25:17;5.35;87.44
82506;SHT30;72144;51.444;10.560;2023-12-20T00:27:43;5.35;87.47
82506;SHT30;72144;51.444;10.560;2023-12-20T00:30:09;5.35;87.44
82506;SHT30;72144;51.444;10.560;2023-12-20T00:32:35;5.35;87.48
82506;SHT30;72144;51.444;10.560;2023-12-20T00:35:01;5.36;87.47
82506;SHT30;72144;51.444;10.560;2023-12-20T00:37:26;5.35;87.47
82506;SHT30;72144;51.444;10.560;2023-12-20T00:39:52;5.36;87.48
82506;SHT30;72144;51.444;10.560;2023-12-20T00:42:17;5.39;87.48
82506;SHT30;72144;51.444;10.560;2023-12-20T00:44:42;5.36;87.52
82506;SHT30;72144;51.444;10.560;2023-12-20T00:47:08;5.33;87.49
82506;SHT30;72144;51.444;10.560;2023-12-20T00:49:33;5.39;87.55
82506;SHT30;72144;51.444;10.560;2023-12-20T00:51:58;5.36;87.50
82506;SHT30;72144;51.444;10.560;2023-12-20T00:54:24;5.36;87.53
82506;SHT30;72144;51.444;10.560;2023-12-20T00:56:49;5.36;87.56
82506;SHT30;72144;51.444;10.560;2023-12-20T00:59:15;5.36;87.56
82506;SHT30;72144;51.444;10.560;2023-12-20T01:01:41;5.37;87.57
82506;SHT30;72144;51.444;10.560;2023-12-20T01:04:07;5.37;87.59
82506;SHT30;72144;51.444;10.560;2023-12-20T01:06:32;5.37;87.55
82506;SHT30;72144;51.444;10.560;2023-12-20T01:08:58;5.39;87.62
82506;SHT30;72144;51.444;10.560;2023-12-20T01:11:23;5.37;87.63
82506;SHT30;72144;51.444;10.560;2023-12-20T01:13:48;5.37;87.63
82506;SHT30;72144;51.444;10.560;2023-12-20T01:16:14;5.39;87.63
82506;SHT30;72144;51.444;10.560;2023-12-20T01:18:39;5.39;87.66
82506;SHT30;72144;51.444;10.560;2023-12-20T01:21:05;5.40;87.67
82506;SHT30;72144;51.444;10.560;2023-12-20T01:23:30;5.40;87.69
82506;SHT30;72144;51.444;10.560;2023-12-20T01:25:56;5.39;87.68
82506;SHT30;72144;51.444;10.560;2023-12-20T01:28:21;5.39;87.73
82506;SHT30;72144;51.444;10.560;2023-12-20T01:30:47;5.42;87.70
82506;SHT30;72144;51.444;10.560;2023-12-20T01:33:13;5.42;87.78
82506;SHT30;72144;51.444;10.560;2023-12-20T01:35:38;5.43;87.78
82506;SHT30;72144;51.444;10.560;2023-12-20T01:38:03;5.40;87.77
82506;SHT30;72144;51.444;10.560;2023-12-20T01:40:29;5.43;87.75
82506;SHT30;72144;51.444;10.560;2023-12-20T01:43:01;5.43;87.78
82506;SHT30;72144;51.444;10.560;2023-12-20T01:45:27;5.44;87.82
82506;SHT30;72144;51.444;10.560;2023-12-20T01:47:53;5.44;87.84
82506;SHT30;72144;51.444;10.560;2023-12-20T01:50:19;5.44;87.86
82506;SHT30;72144;51.444;10.560;2023-12-20T01:52:45;5.44;87.84
82506;SHT30;72144;51.444;10.560;2023-12-20T01:55:11;5.46;87.84
82506;SHT30;72144;51.444;10.560;2023-12-20T01:57:41;5.46;87.91
82506;SHT30;72144;51.444;10.560;2023-12-20T02:00:07;5.47;87.90
82506;SHT30;72144;51.444;10.560;2023-12-20T02:02:36;5.47;87.99
82506;SHT30;72144;51.444;10.560;2023-12-20T02:05:02;5.47;87.95
82506;SHT30;72144;51.444;10.560;2023-12-20T02:07:29;5.47;87.97
82506;SHT30;72144;51.444;10.560;2023-12-20T02:09:56;5.47;87.99
82506;SHT30;72144;51.444;10.560;2023-12-20T02:12:21;5.48;88.00
82506;SHT30;72144;51.444;10.560;2023-12-20T02:14:47;5.48;87.99
82506;SHT30;72144;51.444;10.560;2023-12-20T02:17:12;5.50;88.03
82506;SHT30;72144;51.444;10.560;2023-12-20T02:19:37;5.48;88.02
82506;SHT30;72144;51.444;10.560;2023-12-20T02:24:32;5.50;88.04
82506;SHT30;72144;51.444;10.560;2023-12-20T02:26:58;5.51;88.09
82506;SHT30;72144;51.444;10.560;2023-12-20T02:29:23;5.51;88.10
82506;SHT30;72144;51.444;10.560;2023-12-20T02:31:49;5.53;88.06
82506;SHT30;72144;51.444;10.560;2023-12-20T02:34:14;5.53;88.11
82506;SHT30;72144;51.444;10.560;2023-12-20T02:36:39;5.53;88.12
82506;SHT30;72144;51.444;10.560;2023-12-20T02:39:04;5.54;88.15
82506;SHT30;72144;51.444;10.560;2023-12-20T02:41:30;5.55;88.14
82506;SHT30;72144;51.444;10.560;2023-12-20T02:43:55;5.55;88.16
82506;SHT30;72144;51.444;10.560;2023-12-20T02:46:20;5.57;88.17
82506;SHT30;72144;51.444;10.560;2023-12-20T02:48:46;5.60;88.15
82506;SHT30;72144;51.444;10.560;2023-12-20T02:51:12;5.60;88.22
82506;SHT30;72144;51.444;10.560;2023-12-20T02:53:37;5.58;88.27
82506;SHT30;72144;51.444;10.560;2023-12-20T02:56:03;5.60;88.22
82506;SHT30;72144;51.444;10.560;2023-12-20T02:58:28;5.63;88.27
82506;SHT30;72144;51.444;10.560;2023-12-20T03:00:54;5.63;88.31
82506;SHT30;72144;51.444;10.560;2023-12-20T03:03:19;5.63;88.32
82506;SHT30;72144;51.444;10.560;2023-12-20T03:05:45;5.61;88.33
82506;SHT30;72144;51.444;10.560;2023-12-20T03:08:11;5.63;88.33
82506;SHT30;72144;51.444;10.560;2023-12-20T03:10:37;5.64;88.37
82506;SHT30;72144;51.444;10.560;2023-12-20T03:13:02;5.65;88.35
82506;SHT30;72144;51.444;10.560;2023-12-20T03:15:27;5.64;88.41
82506;SHT30;72144;51.444;10.560;2023-12-20T03:17:53;5.65;88.42
82506;SHT30;72144;51.444;10.560;2023-12-20T03:20:18;5.67;88.35
82506;SHT30;72144;51.444;10.560;2023-12-20T03:22:43;5.68;88.31
82506;SHT30;72144;51.444;10.560;2023-12-20T03:25:09;5.67;88.33
82506;SHT30;72144;51.444;10.560;2023-12-20T03:27:37;5.68;88.25
82506;SHT30;72144;51.444;10.560;2023-12-20T03:30:04;5.67;88.30
82506;SHT30;72144;51.444;10.560;2023-12-20T03:32:29;5.68;88.31
82506;SHT30;72144;51.444;10.560;2023-12-20T03:34:55;5.70;88.37
82506;SHT30;72144;51.444;10.560;2023-12-20T03:37:21;5.68;88.33
82506;SHT30;72144;51.444;10.560;2023-12-20T03:39:47;5.67;88.30
82506;SHT30;72144;51.444;10.560;2023-12-20T03:42:12;5.68;88.29
82506;SHT30;72144;51.444;10.560;2023-12-20T03:44:39;5.70;88.31
82506;SHT30;72144;51.444;10.560;2023-12-20T03:47:05;5.67;88.38
82506;SHT30;72144;51.444;10.560;2023-12-20T03:49:30;5.67;88.30
82506;SHT30;72144;51.444;10.560;2023-12-20T03:51:56;5.67;88.29
82506;SHT30;72144;51.444;10.560;2023-12-20T03:54:21;5.71;88.25
82506;SHT30;72144;51.444;10.560;2023-12-20T03:56:46;5.70;88.23
82506;SHT30;72144;51.444;10.560;2023-12-20T03:59:12;5.68;88.25
82506;SHT30;72144;51.444;10.560;2023-12-20T04:01:37;5.70;88.22
82506;SHT30;72144;51.444;10.560;2023-12-20T04:04:02;5.70;88.20
82506;SHT30;72144;51.444;10.560;2023-12-20T04:06:28;5.70;88.14
82506;SHT30;72144;51.444;10.560;2023-12-20T04:08:53;5.70;88.11
82506;SHT30;72144;51.444;10.560;2023-12-20T04:11:18;5.71;87.98
82506;SHT30;72144;51.444;10.560;2023-12-20T04:13:44;5.70;88.00
82506;SHT30;72144;51.444;10.560;2023-12-20T04:16:09;5.68;87.96
82506;SHT30;72144;51.444;10.560;2023-12-20T04:18:34;5.65;87.98
82506;SHT30;72144;51.444;10.560;2023-12-20T04:21:00;5.67;87.95
82506;SHT30;72144;51.444;10.560;2023-12-20T04:23:25;5.70;87.97
82506;SHT30;72144;51.444;10.560;2023-12-20T04:25:50;5.68;87.96
82506;SHT30;72144;51.444;10.560;2023-12-20T04:28:16;5.70;87.91
82506;SHT30;72144;51.444;10.560;2023-12-20T04:30:42;5.68;87.79
82506;SHT30;72144;51.444;10.560;2023-12-20T04:33:07;5.68;87.79
82506;SHT30;72144;51.444;10.560;2023-12-20T04:35:33;5.67;87.80
82506;SHT30;72144;51.444;10.560;2023-12-20T04:37:58;5.68;87.74
82506;SHT30;72144;51.444;10.560;2023-12-20T04:40:23;5.68;87.78
82506;SHT30;72144;51.444;10.560;2023-12-20T04:42:49;5.67;87.65
82506;SHT30;72144;51.444;10.560;2023-12-20T04:45:14;5.65;87.58
82506;SHT30;72144;51.444;10.560;2023-12-20T04:47:41;5.64;87.56
82506;SHT30;72144;51.444;10.560;2023-12-20T04:50:07;5.64;87.46
82506;SHT30;72144;51.444;10.560;2023-12-20T04:52:33;5.64;87.48
82506;SHT30;72144;51.444;10.560;2023-12-20T04:54:58;5.64;87.39
82506;SHT30;72144;51.444;10.560;2023-12-20T04:57:24;5.63;87.36
82506;SHT30;72144;51.444;10.560;2023-12-20T04:59:50;5.63;87.37
82506;SHT30;72144;51.444;10.560;2023-12-20T05:02:15;5.63;87.42
82506;SHT30;72144;51.444;10.560;2023-12-20T05:04:41;5.64;87.38
82506;SHT30;72144;51.444;10.560;2023-12-20T05:07:06;5.63;87.27
82506;SHT30;72144;51.444;10.560;2023-12-20T05:09:32;5.61;87.32
82506;SHT30;72144;51.444;10.560;2023-12-20T05:11:58;5.63;87.32
82506;SHT30;72144;51.444;10.560;2023-12-20T05:14:23;5.58;87.17
82506;SHT30;72144;51.444;10.560;2023-12-20T05:16:49;5.58;87.15
82506;SHT30;72144;51.444;10.560;2023-12-20T05:19:15;5.57;87.10
82506;SHT30;72144;51.444;10.560;2023-12-20T05:21:40;5.60;87.09
82506;SHT30;72144;51.444;10.560;2023-12-20T05:24:05;5.57;87.11
82506;SHT30;72144;51.444;10.560;2023-12-20T05:26:31;5.57;87.11
82506;SHT30;72144;51.444;10.560;2023-12-20T05:28:56;5.57;87.13
82506;SHT30;72144;51.444;10.560;2023-12-20T05:31:21;5.55;87.08
82506;SHT30;72144;51.444;10.560;2023-12-20T05:33:47;5.57;87.13
82506;SHT30;72144;51.444;10.560;2023-12-20T05:36:12;5.58;87.12
82506;SHT30;72144;51.444;10.560;2023-12-20T05:38:40;5.57;87.11
82506;SHT30;72144;51.444;10.560;2023-12-20T05:41:05;5.57;87.10
82506;SHT30;72144;51.444;10.560;2023-12-20T05:43:31;5.58;87.10
82506;SHT30;72144;51.444;10.560;2023-12-20T05:45:56;5.58;87.08
82506;SHT30;72144;51.444;10.560;2023-12-20T05:48:21;5.57;87.01
82506;SHT30;72144;51.444;10.560;2023-12-20T05:50:47;5.55;87.00
82506;SHT30;72144;51.444;10.560;2023-12-20T05:53:13;5.54;86.99
82506;SHT30;72144;51.444;10.560;2023-12-20T05:55:38;5.55;87.04
82506;SHT30;72144;51.444;10.560;2023-12-20T05:58:03;5.53;86.97
82506;SHT30;72144;51.444;10.560;2023-12-20T06:00:30;5.54;86.95
82506;SHT30;72144;51.444;10.560;2023-12-20T06:02:56;5.51;86.84
82506;SHT30;72144;51.444;10.560;2023-12-20T06:05:21;5.48;86.78
82506;SHT30;72144;51.444;10.560;2023-12-20T06:07:47;5.48;86.77
82506;SHT30;72144;51.444;10.560;2023-12-20T06:10:13;5.46;86.85
82506;SHT30;72144;51.444;10.560;2023-12-20T06:12:39;5.46;86.79
82506;SHT30;72144;51.444;10.560;2023-12-20T06:15:05;5.44;86.74
82506;SHT30;72144;51.444;10.560;2023-12-20T06:17:31;5.43;86.69
82506;SHT30;72144;51.444;10.560;2023-12-20T06:19:56;5.42;86.72
82506;SHT30;72144;51.444;10.560;2023-12-20T06:22:22;5.40;86.68
82506;SHT30;72144;51.444;10.560;2023-12-20T06:24:47;5.40;86.64
82506;SHT30;72144;51.444;10.560;2023-12-20T06:27:13;5.39;86.63
82506;SHT30;72144;51.444;10.560;2023-12-20T06:29:38;5.36;86.58
82506;SHT30;72144;51.444;10.560;2023-12-20T06:32:04;5.39;86.59
82506;SHT30;72144;51.444;10.560;2023-12-20T06:34:29;5.37;86.57
82506;SHT30;72144;51.444;10.560;2023-12-20T06:36:55;5.33;86.63
82506;SHT30;72144;51.444;10.560;2023-12-20T06:39:20;5.33;86.67
82506;SHT30;72144;51.444;10.560;2023-12-20T06:41:45;5.35;86.64
82506;SHT30;72144;51.444;10.560;2023-12-20T06:44:11;5.33;86.68
82506;SHT30;72144;51.444;10.560;2023-12-20T06:46:36;5.30;86.68
82506;SHT30;72144;51.444;10.560;2023-12-20T06:49:02;5.30;86.65
82506;SHT30;72144;51.444;10.560;2023-12-20T06:51:27;5.32;86.62
82506;SHT30;72144;51.444;10.560;2023-12-20T06:53:53;5.29;86.58
82506;SHT30;72144;51.444;10.560;2023-12-20T06:56:18;5.33;86.54
82506;SHT30;72144;51.444;10.560;2023-12-20T06:58:44;5.30;86.53
82506;SHT30;72144;51.444;10.560;2023-12-20T07:01:13;5.30;86.55
82506;SHT30;72144;51.444;10.560;2023-12-20T07:03:39;5.30;86.60
82506;SHT30;72144;51.444;10.560;2023-12-20T07:06:05;5.29;86.56
82506;SHT30;72144;51.444;10.560;2023-12-20T07:08:31;5.29;86.51
82506;SHT30;72144;51.444;10.560;2023-12-20T07:10:56;5.30;86.53
82506;SHT30;72144;51.444;10.560;2023-12-20T07:13:21;5.29;86.52
82506;SHT30;72144;51.444;10.560;2023-12-20T07:15:48;5.27;86.50
82506;SHT30;72144;51.444;10.560;2023-12-20T07:18:13;5.29;86.60
82506;SHT30;72144;51.444;10.560;2023-12-20T07:20:39;5.32;86.63
82506;SHT30;72144;51.444;10.560;2023-12-20T07:23:04;5.29;86.67
82506;SHT30;72144;51.444;10.560;2023-12-20T07:25:29;5.29;86.77
82506;SHT30;72144;51.444;10.560;2023-12-20T07:28:00;5.27;86.79
82506;SHT30;72144;51.444;10.560;2023-12-20T07:30:25;5.30;86.84
82506;SHT30;72144;51.444;10.560;2023-12-20T07:32:51;5.30;86.81
82506;SHT30;72144;51.444;10.560;2023-12-20T07:35:17;5.27;86.76
82506;SHT30;72144;51.444;10.560;2023-12-20T07:37:43;5.30;86.72
82506;SHT30;72144;51.444;10.560;2023-12-20T07:40:08;5.26;86.68
82506;SHT30;72144;51.444;10.560;2023-12-20T07:42:34;5.27;86.73
82506;SHT30;72144;51.444;10.560;2023-12-20T07:44:59;5.27;86.63
82506;SHT30;72144;51.444;10.560;2023-12-20T07:47:24;5.27;86.69
82506;SHT30;72144;51.444;10.560;2023-12-20T07:49:51;5.27;86.67
82506;SHT30;72144;51.444;10.560;2023-12-20T07:52:17;5.29;86.59
82506;SHT30;72144;51.444;10.560;2023-12-20T07:54:44;5.26;86.60
82506;SHT30;72144;51.444;10.560;2023-12-20T07:57:10;5.26;86.62
82506;SHT30;72144;51.444;10.560;2023-12-20T07:59:36;5.27;86.67
82506;SHT30;72144;51.444;10.560;2023-12-20T08:02:01;5.26;86.61
82506;SHT30;72144;51.444;10.560;2023-12-20T08:04:26;5.26;86.62
82506;SHT30;72144;51.444;10.560;2023-12-20T08:06:52;5.27;86.59
82506;SHT30;72144;51.444;10.560;2023-12-20T08:09:18;5.29;86.59
82506;SHT30;72144;51.444;10.560;2023-12-20T08:11:47;5.29;86.62
82506;SHT30;72144;51.444;10.560;2023-12-20T08:14:13;5.26;86.57
82506;SHT30;72144;51.444;10.560;2023-12-20T08:16:38;5.25;86.59
82506;SHT30;72144;51.444;10.560;2023-12-20T08:19:04;5.26;86.59
82506;SHT30;72144;51.444;10.560;2023-12-20T08:21:29;5.27;86.69
82506;SHT30;72144;51.444;10.560;2023-12-20T08:23:55;5.26;86.69
82506;SHT30;72144;51.444;10.560;2023-12-20T08:26:20;5.29;86.78
82506;SHT30;72144;51.444;10.560;2023-12-20T08:28:47;5.29;86.78
82506;SHT30;72144;51.444;10.560;2023-12-20T08:31:14;5.30;86.81
82506;SHT30;72144;51.444;10.560;2023-12-20T08:33:43;5.30;86.78
82506;SHT30;72144;51.444;10.560;2023-12-20T08:36:08;5.30;86.81
82506;SHT30;72144;51.444;10.560;2023-12-20T08:38:34;5.29;86.83
82506;SHT30;72144;51.444;10.560;2023-12-20T08:40:59;5.32;86.83
82506;SHT30;72144;51.444;10.560;2023-12-20T08:43:24;5.32;86.84
82506;SHT30;72144;51.444;10.560;2023-12-20T08:45:50;5.33;86.94
82506;SHT30;72144;51.444;10.560;2023-12-20T08:48:15;5.32;86.90
82506;SHT30;72144;51.444;10.560;2023-12-20T08:50:41;5.32;86.83
82506;SHT30;72144;51.444;10.560;2023-12-20T08:53:06;5.32;86.81
82506;SHT30;72144;51.444;10.560;2023-12-20T08:55:32;5.35;86.91
82506;SHT30;72144;51.444;10.560;2023-12-20T08:57:57;5.35;86.98
82506;SHT30;72144;51.444;10.560;2023-12-20T09:00:22;5.35;86.91
82506;SHT30;72144;51.444;10.560;2023-12-20T09:02:51;5.35;86.81
82506;SHT30;72144;51.444;10.560;2023-12-20T09:05:16;5.32;86.78
82506;SHT30;72144;51.444;10.560;2023-12-20T09:07:41;5.33;86.77
82506;SHT30;72144;51.444;10.560;2023-12-20T09:10:07;5.33;86.68
82506;SHT30;72144;51.444;10.560;2023-12-20T09:12:32;5.35;86.73
82506;SHT30;72144;51.444;10.560;2023-12-20T09:14:57;5.33;86.72
82506;SHT30;72144;51.444;10.560;2023-12-20T09:17:23;5.35;86.71
82506;SHT30;72144;51.444;10.560;2023-12-20T09:19:48;5.33;86.77
82506;SHT30;72144;51.444;10.560;2023-12-20T09:22:14;5.37;86.68
82506;SHT30;72144;51.444;10.560;2023-12-20T09:24:39;5.36;86.67
82506;SHT30;72144;51.444;10.560;2023-12-20T09:27:05;5.35;86.68
82506;SHT30;72144;51.444;10.560;2023-12-20T09:29:30;5.40;86.71
82506;SHT30;72144;51.444;10.560;2023-12-20T09:31:56;5.37;86.69
82506;SHT30;72144;51.444;10.560;2023-12-20T09:34:22;5.39;86.71
82506;SHT30;72144;51.444;10.560;2023-12-20T09:36:48;5.40;86.76
82506;SHT30;72144;51.444;10.560;2023-12-20T09:39:14;5.39;86.77
82506;SHT30;72144;51.444;10.560;2023-12-20T09:41:43;5.42;86.83
82506;SHT30;72144;51.444;10.560;2023-12-20T09:44:14;5.43;86.88
82506;SHT30;72144;51.444;10.560;2023-12-20T09:46:43;5.46;86.92
82506;SHT30;72144;51.444;10.560;2023-12-20T09:49:08;5.46;86.89
82506;SHT30;72144;51.444;10.560;2023-12-20T09:51:36;5.46;86.90
82506;SHT30;72144;51.444;10.560;2023-12-20T09:54:03;5.47;86.91
82506;SHT30;72144;51.444;10.560;2023-12-20T09:56:28;5.47;86.96
82506;SHT30;72144;51.444;10.560;2023-12-20T09:58:54;5.47;86.99
82506;SHT30;72144;51.444;10.560;2023-12-20T10:01:20;5.48;86.98
82506;SHT30;72144;51.444;10.560;2023-12-20T10:03:46;5.47;87.01
82506;SHT30;72144;51.444;10.560;2023-12-20T10:06:12;5.48;87.08
82506;SHT30;72144;51.444;10.560;2023-12-20T10:08:38;5.50;87.13
82506;SHT30;72144;51.444;10.560;2023-12-20T10:11:04;5.50;87.17
82506;SHT30;72144;51.444;10.560;2023-12-20T10:13:30;5.51;87.23
82506;SHT30;72144;51.444;10.560;2023-12-20T10:15:55;5.54;87.25
82506;SHT30;72144;51.444;10.560;2023-12-20T10:18:22;5.51;87.32
82506;SHT30;72144;51.444;10.560;2023-12-20T10:20:48;5.54;87.35
82506;SHT30;72144;51.444;10.560;2023-12-20T10:23:15;5.58;87.39
82506;SHT30;72144;51.444;10.560;2023-12-20T10:25:40;5.58;87.43
82506;SHT30;72144;51.444;10.560;2023-12-20T10:28:17;5.58;87.37
82506;SHT30;72144;51.444;10.560;2023-12-20T10:30:48;5.61;87.44
82506;SHT30;72144;51.444;10.560;2023-12-20T10:33:23;5.61;87.45
82506;SHT30;72144;51.444;10.560;2023-12-20T10:35:49;5.63;87.52
82506;SHT30;72144;51.444;10.560;2023-12-20T10:38:15;5.64;87.50
82506;SHT30;72144;51.444;10.560;2023-12-20T10:40:40;5.61;87.49
82506;SHT30;72144;51.444;10.560;2023-12-20T10:43:06;5.64;87.43
82506;SHT30;72144;51.444;10.560;2023-12-20T10:45:33;5.67;87.51
82506;SHT30;72144;51.444;10.560;2023-12-20T10:47:59;5.71;87.64
82506;SHT30;72144;51.444;10.560;2023-12-20T10:50:27;5.68;87.64
82506;SHT30;72144;51.444;10.560;2023-12-20T10:52:54;5.71;87.55
82506;SHT30;72144;51.444;10.560;2023-12-20T10:55:21;5.72;87.45
82506;SHT30;72144;51.444;10.560;2023-12-20T10:57:49;5.71;87.47
82506;SHT30;72144;51.444;10.560;2023-12-20T11:00:17;5.72;87.27
82506;SHT30;72144;51.444;10.560;2023-12-20T11:02:43;5.78;87.31
82506;SHT30;72144;51.444;10.560;2023-12-20T11:05:35;5.75;86.96
82506;SHT30;72144;51.444;10.560;2023-12-20T11:13:37;5.84;86.79
82506;SHT30;72144;51.444;10.560;2023-12-20T11:16:06;5.84;86.68
82506;SHT30;72144;51.444;10.560;2023-12-20T11:18:32;5.89;86.65
82506;SHT30;72144;51.444;10.560;2023-12-20T11:21:04;5.92;86.59
82506;SHT30;72144;51.444;10.560;2023-12-20T11:23:31;5.97;86.68
82506;SHT30;72144;51.444;10.560;2023-12-20T11:25:59;6.01;86.61
82506;SHT30;72144;51.444;10.560;2023-12-20T11:28:26;6.02;86.62
82506;SHT30;72144;51.444;10.560;2023-12-20T11:30:53;6.02;86.50
82506;SHT30;72144;51.444;10.560;2023-12-20T11:33:27;6.05;86.32
82506;SHT30;72144;51.444;10.560;2023-12-20T11:35:58;6.08;86.30
82506;SHT30;72144;51.444;10.560;2023-12-20T11:38:25;6.10;86.36
82506;SHT30;72144;51.444;10.560;2023-12-20T11:40:53;6.10;86.30
82506;SHT30;72144;51.444;10.560;2023-12-20T11:43:32;6.13;86.24
82506;SHT30;72144;51.444;10.560;2023-12-20T11:46:07;6.15;86.16
82506;SHT30;72144;51.444;10.560;2023-12-20T11:48:38;6.16;86.12
82506;SHT30;72144;51.444;10.560;2023-12-20T11:51:10;6.15;86.05
82506;SHT30;72144;51.444;10.560;2023-12-20T11:53:36;6.16;85.97
82506;SHT30;72144;51.444;10.560;2023-12-20T11:56:03;6.19;86.02
82506;SHT30;72144;51.444;10.560;2023-12-20T11:58:29;6.20;85.92
82506;SHT30;72144;51.444;10.560;2023-12-20T12:00:55;6.17;85.86
82506;SHT30;72144;51.444;10.560;2023-12-20T12:03:20;6.17;85.80
82506;SHT30;72144;51.444;10.560;2023-12-20T12:05:47;6.20;85.77
82506;SHT30;72144;51.444;10.560;2023-12-20T12:08:13;6.20;85.81
82506;SHT30;72144;51.444;10.560;2023-12-20T12:10:39;6.17;85.78
82506;SHT30;72144;51.444;10.560;2023-12-20T12:13:04;6.19;85.83
82506;SHT30;72144;51.444;10.560;2023-12-20T12:15:29;6.19;85.98
82506;SHT30;72144;51.444;10.560;2023-12-20T12:17:56;6.19;86.03
82506;SHT30;72144;51.444;10.560;2023-12-20T12:20:22;6.19;85.98
82506;SHT30;72144;51.444;10.560;2023-12-20T12:23:02;6.19;85.92
82506;SHT30;72144;51.444;10.560;2023-12-20T12:25:32;6.17;86.05
82506;SHT30;72144;51.444;10.560;2023-12-20T12:28:01;6.17;86.11
82506;SHT30;72144;51.444;10.560;2023-12-20T12:30:26;6.17;86.30
82506;SHT30;72144;51.444;10.560;2023-12-20T12:32:52;6.19;86.22
82506;SHT30;72144;51.444;10.560;2023-12-20T12:35:18;6.17;86.16
82506;SHT30;72144;51.444;10.560;2023-12-20T12:37:44;6.19;86.31
82506;SHT30;72144;51.444;10.560;2023-12-20T12:40:11;6.19;86.29
82506;SHT30;72144;51.444;10.560;2023-12-20T12:42:40;6.22;86.42
82506;SHT30;72144;51.444;10.560;2023-12-20T12:45:06;6.22;86.32
82506;SHT30;72144;51.444;10.560;2023-12-20T12:47:32;6.23;86.32
82506;SHT30;72144;51.444;10.560;2023-12-20T12:49:58;6.25;86.22
82506;SHT30;72144;51.444;10.560;2023-12-20T12:52:23;6.25;86.11
82506;SHT30;72144;51.444;10.560;2023-12-20T12:54:48;6.26;86.15
82506;SHT30;72144;51.444;10.560;2023-12-20T12:57:15;6.27;86.24
82506;SHT30;72144;51.444;10.560;2023-12-20T12:59:43;6.23;86.24
82506;SHT30;72144;51.444;10.560;2023-12-20T13:02:11;6.25;86.31
82506;SHT30;72144;51.444;10.560;2023-12-20T13:04:36;6.25;86.31
82506;SHT30;72144;51.444;10.560;2023-12-20T13:07:01;6.25;86.73
82506;SHT30;72144;51.444;10.560;2023-12-20T13:09:27;6.25;86.67
82506;SHT30;72144;51.444;10.560;2023-12-20T13:11:53;6.25;86.84
82506;SHT30;72144;51.444;10.560;2023-12-20T13:14:18;6.22;86.84
82506;SHT30;72144;51.444;10.560;2023-12-20T13:16:43;6.25;86.78
82506;SHT30;72144;51.444;10.560;2023-12-20T13:19:10;6.22;86.98
82506;SHT30;72144;51.444;10.560;2023-12-20T13:21:36;6.25;87.08
82506;SHT30;72144;51.444;10.560;2023-12-20T13:24:01;6.22;87.07
82506;SHT30;72144;51.444;10.560;2023-12-20T13:26:27;6.20;87.15
82506;SHT30;72144;51.444;10.560;2023-12-20T13:28:53;6.22;87.21
82506;SHT30;72144;51.444;10.560;2023-12-20T13:31:19;6.26;87.32
82506;SHT30;72144;51.444;10.560;2023-12-20T13:33:45;6.23;87.35
82506;SHT30;72144;51.444;10.560;2023-12-20T13:36:10;6.23;87.39
82506;SHT30;72144;51.444;10.560;2023-12-20T13:38:36;6.25;87.42
82506;SHT30;72144;51.444;10.560;2023-12-20T13:41:02;6.23;87.39
82506;SHT30;72144;51.444;10.560;2023-12-20T13:43:27;6.23;87.42
82506;SHT30;72144;51.444;10.560;2023-12-20T13:45:52;6.25;87.33
82506;SHT30;72144;51.444;10.560;2023-12-20T13:48:18;6.22;87.38
82506;SHT30;72144;51.444;10.560;2023-12-20T13:50:43;6.22;87.46
82506;SHT30;72144;51.444;10.560;2023-12-20T13:53:09;6.23;87.49
82506;SHT30;72144;51.444;10.560;2023-12-20T13:55:36;6.25;87.47
82506;SHT30;72144;51.444;10.560;2023-12-20T13:58:01;6.23;87.53
82506;SHT30;72144;51.444;10.560;2023-12-20T14:00:26;6.20;87.51
82506;SHT30;72144;51.444;10.560;2023-12-20T14:02:52;6.20;87.45
82506;SHT30;72144;51.444;10.560;2023-12-20T14:05:17;6.19;87.43
82506;SHT30;72144;51.444;10.560;2023-12-20T14:07:43;6.20;87.44
82506;SHT30;72144;51.444;10.560;2023-12-20T14:10:14;6.19;87.44
82506;SHT30;72144;51.444;10.560;2023-12-20T14:12:39;6.17;87.45
82506;SHT30;72144;51.444;10.560;2023-12-20T14:15:05;6.15;87.42
82506;SHT30;72144;51.444;10.560;2023-12-20T14:17:37;6.15;87.39
82506;SHT30;72144;51.444;10.560;2023-12-20T14:20:03;6.16;87.37
82506;SHT30;72144;51.444;10.560;2023-12-20T14:22:30;6.13;87.38
82506;SHT30;72144;51.444;10.560;2023-12-20T14:24:55;6.15;87.43
82506;SHT30;72144;51.444;10.560;2023-12-20T14:27:22;6.13;87.50
82506;SHT30;72144;51.444;10.560;2023-12-20T14:29:49;6.15;87.40
82506;SHT30;72144;51.444;10.560;2023-12-20T14:32:16;6.10;87.43
82506;SHT30;72144;51.444;10.560;2023-12-20T14:34:42;6.10;87.35
82506;SHT30;72144;51.444;10.560;2023-12-20T14:37:07;6.09;87.25
82506;SHT30;72144;51.444;10.560;2023-12-20T14:39:32;6.12;87.25
82506;SHT30;72144;51.444;10.560;2023-12-20T14:41:58;6.12;87.30
82506;SHT30;72144;51.444;10.560;2023-12-20T14:44:23;6.10;87.41
82506;SHT30;72144;51.444;10.560;2023-12-20T14:46:49;6.08;87.33
82506;SHT30;72144;51.444;10.560;2023-12-20T14:49:14;6.09;87.30
82506;SHT30;72144;51.444;10.560;2023-12-20T14:51:39;6.09;87.26
82506;SHT30;72144;51.444;10.560;2023-12-20T14:54:08;6.06;87.31
82506;SHT30;72144;51.444;10.560;2023-12-20T14:56:35;6.06;87.26
82506;SHT30;72144;51.444;10.560;2023-12-20T14:59:00;6.08;87.24
82506;SHT30;72144;51.444;10.560;2023-12-20T15:01:26;6.05;87.23
82506;SHT30;72144;51.444;10.560;2023-12-20T15:03:51;6.06;87.24
82506;SHT30;72144;51.444;10.560;2023-12-20T15:06:17;6.05;87.24
82506;SHT30;72144;51.444;10.560;2023-12-20T15:08:45;6.03;87.14
82506;SHT30;72144;51.444;10.560;2023-12-20T15:11:11;6.06;87.22
82506;SHT30;72144;51.444;10.560;2023-12-20T15:13:36;6.06;87.21
82506;SHT30;72144;51.444;10.560;2023-12-20T15:16:02;6.05;87.22
82506;SHT30;72144;51.444;10.560;2023-12-20T15:18:27;6.03;87.18
82506;SHT30;72144;51.444;10.560;2023-12-20T15:20:52;6.05;87.21
82506;SHT30;72144;51.444;10.560;2023-12-20T15:23:18;6.06;87.18
82506;SHT30;72144;51.444;10.560;2023-12-20T15:25:44;6.03;87.12
82506;SHT30;72144;51.444;10.560;2023-12-20T15:28:09;6.03;87.00
82506;SHT30;72144;51.444;10.560;2023-12-20T15:30:34;6.03;86.92